sensor_id;sensor_type;location;lat;lon;timestamp;P1;durP1;ratioP1;P2;durP2;ratioP2
70153;SDS011;57519;51.494;-2.626;2023-05-10T00:01:18;26.95;;;9.55;;
70153;SDS011;57519;51.494;-2.626;2023-05-10T00:03:46;24.03;;;8.70;;
70153;SDS011;57519;51.494;-2.626;2023-05-10T00:06:12;27.80;;;10.07;;
70153;SDS011;57519;51.494;-2.626;2023-05-10T00:08:40;67.13;;;16.17;;
70153;SDS011;57519;51.494;-2.626;2023-05-10T00:11:06;31.63;;;10.70;;
70153;SDS011;57519;51.494;-2.626;2023-05-10T00:13:31;37.53;;;11.25;;
70153;SDS011;57519;51.494;-2.626;2023-05-10T00:15:57;35.47;;;11.67;;
70153;SDS011;57519;51.494;-2.626;2023-05-10T00:18:22;46.93;;;14.07;;
70153;SDS011;57519;51.494;-2.626;2023-05-10T00:20:48;37.10;;;12.40;;
70153;SDS011;57519;51.494;-2.626;2023-05-10T00:41:22;100.13;;;23.25;;
70153;SDS011;57519;51.494;-2.626;2023-05-10T00:43:54;55.10;;;17.38;;
70153;SDS011;57519;51.494;-2.626;2023-05-10T00:46:19;51.10;;;15.77;;
70153;SDS011;57519;51.494;-2.626;2023-05-10T00:48:46;55.20;;;17.52;;
70153;SDS011;57519;51.494;-2.626;2023-05-10T00:51:12;60.33;;;20.02;;
70153;SDS011;57519;51.494;-2.626;2023-05-10T00:53:38;49.37;;;16.77;;
70153;SDS011;57519;51.494;-2.626;2023-05-10T00:56:04;63.95;;;17.95;;
70153;SDS011;57519;51.494;-2.626;2023-05-10T00:58:30;65.57;;;19.87;;
70153;SDS011;57519;51.494;-2.626;2023-05-10T01:00:56;56.10;;;19.92;;
70153;SDS011;57519;51.494;-2.626;2023-05-10T01:03:22;47.78;;;18.10;;
70153;SDS011;57519;51.494;-2.626;2023-05-10T01:05:48;49.07;;;16.80;;
70153;SDS011;57519;51.494;-2.626;2023-05-10T01:08:13;58.20;;;17.83;;
70153;SDS011;57519;51.494;-2.626;2023-05-10T01:10:39;51.35;;;17.50;;
70153;SDS011;57519;51.494;-2.626;2023-05-10T01:13:05;44.83;;;15.17;;
70153;SDS011;57519;51.494;-2.626;2023-05-10T01:15:31;49.60;;;14.82;;
70153;SDS011;57519;51.494;-2.626;2023-05-10T01:17:57;49.42;;;16.92;;
70153;SDS011;57519;51.494;-2.626;2023-05-10T01:20:23;45.43;;;13.83;;
70153;SDS011;57519;51.494;-2.626;2023-05-10T01:28:21;39.60;;;14.00;;
70153;SDS011;57519;51.494;-2.626;2023-05-10T01:31:21;52.63;;;17.48;;
70153;SDS011;57519;51.494;-2.626;2023-05-10T01:36:32;52.70;;;16.50;;
70153;SDS011;57519;51.494;-2.626;2023-05-10T01:39:15;45.45;;;15.57;;
70153;SDS011;57519;51.494;-2.626;2023-05-10T01:41:52;42.55;;;15.15;;
70153;SDS011;57519;51.494;-2.626;2023-05-10T01:44:40;41.05;;;14.25;;
70153;SDS011;57519;51.494;-2.626;2023-05-10T01:49:45;45.03;;;15.48;;
70153;SDS011;57519;51.494;-2.626;2023-05-10T01:52:15;48.25;;;15.32;;
70153;SDS011;57519;51.494;-2.626;2023-05-10T01:54:53;45.00;;;15.68;;
70153;SDS011;57519;51.494;-2.626;2023-05-10T02:23:28;44.72;;;14.52;;
70153;SDS011;57519;51.494;-2.626;2023-05-10T02:25:55;39.63;;;13.68;;
70153;SDS011;57519;51.494;-2.626;2023-05-10T02:28:23;41.53;;;15.13;;
70153;SDS011;57519;51.494;-2.626;2023-05-10T02:30:50;42.20;;;15.77;;
70153;SDS011;57519;51.494;-2.626;2023-05-10T02:33:17;44.40;;;15.32;;
70153;SDS011;57519;51.494;-2.626;2023-05-10T02:35:44;56.80;;;16.77;;
70153;SDS011;57519;51.494;-2.626;2023-05-10T02:38:11;47.72;;;15.93;;
70153;SDS011;57519;51.494;-2.626;2023-05-10T02:40:39;43.30;;;16.27;;
70153;SDS011;57519;51.494;-2.626;2023-05-10T02:43:06;42.40;;;14.35;;
70153;SDS011;57519;51.494;-2.626;2023-05-10T02:45:36;43.25;;;15.38;;
70153;SDS011;57519;51.494;-2.626;2023-05-10T02:48:04;37.95;;;14.23;;
70153;SDS011;57519;51.494;-2.626;2023-05-10T02:50:29;38.37;;;14.43;;
70153;SDS011;57519;51.494;-2.626;2023-05-10T02:53:01;40.70;;;14.65;;
70153;SDS011;57519;51.494;-2.626;2023-05-10T02:55:45;37.15;;;14.02;;
70153;SDS011;57519;51.494;-2.626;2023-05-10T02:58:16;37.00;;;14.43;;
70153;SDS011;57519;51.494;-2.626;2023-05-10T03:00:44;38.75;;;13.60;;
70153;SDS011;57519;51.494;-2.626;2023-05-10T03:03:10;31.30;;;12.57;;
70153;SDS011;57519;51.494;-2.626;2023-05-10T03:05:36;36.03;;;12.55;;
70153;SDS011;57519;51.494;-2.626;2023-05-10T03:08:01;45.97;;;14.83;;
70153;SDS011;57519;51.494;-2.626;2023-05-10T03:10:29;37.42;;;14.38;;
70153;SDS011;57519;51.494;-2.626;2023-05-10T03:15:42;40.42;;;13.30;;
70153;SDS011;57519;51.494;-2.626;2023-05-10T03:18:18;37.93;;;13.40;;
70153;SDS011;57519;51.494;-2.626;2023-05-10T03:20:48;42.28;;;14.07;;
70153;SDS011;57519;51.494;-2.626;2023-05-10T03:23:30;47.78;;;14.27;;
70153;SDS011;57519;51.494;-2.626;2023-05-10T03:26:06;33.85;;;12.60;;
70153;SDS011;57519;51.494;-2.626;2023-05-10T03:28:33;36.17;;;11.88;;
70153;SDS011;57519;51.494;-2.626;2023-05-10T03:30:59;39.87;;;13.77;;
70153;SDS011;57519;51.494;-2.626;2023-05-10T03:33:25;29.90;;;11.27;;
70153;SDS011;57519;51.494;-2.626;2023-05-10T03:35:51;39.20;;;10.60;;
70153;SDS011;57519;51.494;-2.626;2023-05-10T03:38:16;36.80;;;11.00;;
70153;SDS011;57519;51.494;-2.626;2023-05-10T03:40:41;47.80;;;12.98;;
70153;SDS011;57519;51.494;-2.626;2023-05-10T03:43:07;38.87;;;12.60;;
70153;SDS011;57519;51.494;-2.626;2023-05-10T03:45:32;38.00;;;12.13;;
70153;SDS011;57519;51.494;-2.626;2023-05-10T03:47:58;34.53;;;11.87;;
70153;SDS011;57519;51.494;-2.626;2023-05-10T03:50:23;40.85;;;11.00;;
70153;SDS011;57519;51.494;-2.626;2023-05-10T03:52:49;37.87;;;12.10;;
70153;SDS011;57519;51.494;-2.626;2023-05-10T03:55:15;43.33;;;12.30;;
70153;SDS011;57519;51.494;-2.626;2023-05-10T03:57:41;34.67;;;11.65;;
70153;SDS011;57519;51.494;-2.626;2023-05-10T04:00:06;37.60;;;11.83;;
70153;SDS011;57519;51.494;-2.626;2023-05-10T04:02:33;37.20;;;13.02;;
70153;SDS011;57519;51.494;-2.626;2023-05-10T04:04:58;39.30;;;13.10;;
70153;SDS011;57519;51.494;-2.626;2023-05-10T04:07:24;37.57;;;12.70;;
70153;SDS011;57519;51.494;-2.626;2023-05-10T04:09:49;37.43;;;11.97;;
70153;SDS011;57519;51.494;-2.626;2023-05-10T04:12:14;37.10;;;11.45;;
70153;SDS011;57519;51.494;-2.626;2023-05-10T04:14:40;39.67;;;11.70;;
70153;SDS011;57519;51.494;-2.626;2023-05-10T04:17:05;35.70;;;11.93;;
70153;SDS011;57519;51.494;-2.626;2023-05-10T04:19:31;32.03;;;12.07;;
70153;SDS011;57519;51.494;-2.626;2023-05-10T04:21:57;39.63;;;12.00;;
70153;SDS011;57519;51.494;-2.626;2023-05-10T04:24:23;41.25;;;12.30;;
70153;SDS011;57519;51.494;-2.626;2023-05-10T04:26:48;31.07;;;12.50;;
70153;SDS011;57519;51.494;-2.626;2023-05-10T04:29:16;36.10;;;12.60;;
70153;SDS011;57519;51.494;-2.626;2023-05-10T04:31:41;31.75;;;11.57;;
70153;SDS011;57519;51.494;-2.626;2023-05-10T04:34:07;32.80;;;11.73;;
70153;SDS011;57519;51.494;-2.626;2023-05-10T04:36:32;35.47;;;10.90;;
70153;SDS011;57519;51.494;-2.626;2023-05-10T04:39:00;37.13;;;10.57;;
70153;SDS011;57519;51.494;-2.626;2023-05-10T04:41:25;31.38;;;10.88;;
70153;SDS011;57519;51.494;-2.626;2023-05-10T04:43:51;26.87;;;10.10;;
70153;SDS011;57519;51.494;-2.626;2023-05-10T04:46:16;34.87;;;10.77;;
70153;SDS011;57519;51.494;-2.626;2023-05-10T04:48:42;28.90;;;10.20;;
70153;SDS011;57519;51.494;-2.626;2023-05-10T04:51:07;31.13;;;9.80;;
70153;SDS011;57519;51.494;-2.626;2023-05-10T04:53:32;32.97;;;11.17;;
70153;SDS011;57519;51.494;-2.626;2023-05-10T04:55:58;37.00;;;11.83;;
70153;SDS011;57519;51.494;-2.626;2023-05-10T04:58:23;31.40;;;10.97;;
70153;SDS011;57519;51.494;-2.626;2023-05-10T05:00:49;44.83;;;12.07;;
70153;SDS011;57519;51.494;-2.626;2023-05-10T05:11:41;34.05;;;9.98;;
70153;SDS011;57519;51.494;-2.626;2023-05-10T05:14:06;29.43;;;9.77;;
70153;SDS011;57519;51.494;-2.626;2023-05-10T05:16:32;27.23;;;11.00;;
70153;SDS011;57519;51.494;-2.626;2023-05-10T05:18:57;34.43;;;10.33;;
70153;SDS011;57519;51.494;-2.626;2023-05-10T05:21:22;32.75;;;10.80;;
70153;SDS011;57519;51.494;-2.626;2023-05-10T05:23:48;21.60;;;9.67;;
70153;SDS011;57519;51.494;-2.626;2023-05-10T05:26:14;24.17;;;9.82;;
70153;SDS011;57519;51.494;-2.626;2023-05-10T05:28:40;28.73;;;9.63;;
70153;SDS011;57519;51.494;-2.626;2023-05-10T05:31:05;26.77;;;9.07;;
70153;SDS011;57519;51.494;-2.626;2023-05-10T05:33:35;32.60;;;11.23;;
70153;SDS011;57519;51.494;-2.626;2023-05-10T05:36:04;30.80;;;11.23;;
70153;SDS011;57519;51.494;-2.626;2023-05-10T05:38:30;34.53;;;10.90;;
70153;SDS011;57519;51.494;-2.626;2023-05-10T05:40:56;30.02;;;10.52;;
70153;SDS011;57519;51.494;-2.626;2023-05-10T05:45:56;26.80;;;9.85;;
70153;SDS011;57519;51.494;-2.626;2023-05-10T05:48:22;28.70;;;10.40;;
70153;SDS011;57519;51.494;-2.626;2023-05-10T05:50:48;30.25;;;9.60;;
70153;SDS011;57519;51.494;-2.626;2023-05-10T05:53:17;28.47;;;9.70;;
70153;SDS011;57519;51.494;-2.626;2023-05-10T05:55:54;73.20;;;16.67;;
70153;SDS011;57519;51.494;-2.626;2023-05-10T06:00:57;36.00;;;9.70;;
70153;SDS011;57519;51.494;-2.626;2023-05-10T06:03:23;27.58;;;8.00;;
70153;SDS011;57519;51.494;-2.626;2023-05-10T06:12:33;22.17;;;6.90;;
70153;SDS011;57519;51.494;-2.626;2023-05-10T06:14:58;23.80;;;7.17;;
70153;SDS011;57519;51.494;-2.626;2023-05-10T06:17:24;17.27;;;6.40;;
70153;SDS011;57519;51.494;-2.626;2023-05-10T06:19:50;23.38;;;6.75;;
70153;SDS011;57519;51.494;-2.626;2023-05-10T06:22:15;19.52;;;6.00;;
70153;SDS011;57519;51.494;-2.626;2023-05-10T06:24:41;18.93;;;6.10;;
70153;SDS011;57519;51.494;-2.626;2023-05-10T06:27:06;14.23;;;5.43;;
70153;SDS011;57519;51.494;-2.626;2023-05-10T06:29:32;16.83;;;5.53;;
70153;SDS011;57519;51.494;-2.626;2023-05-10T06:31:57;15.18;;;4.72;;
70153;SDS011;57519;51.494;-2.626;2023-05-10T06:34:23;17.90;;;5.72;;
70153;SDS011;57519;51.494;-2.626;2023-05-10T06:36:49;21.53;;;5.50;;
70153;SDS011;57519;51.494;-2.626;2023-05-10T06:39:14;19.47;;;6.13;;
70153;SDS011;57519;51.494;-2.626;2023-05-10T06:41:40;22.80;;;5.90;;
70153;SDS011;57519;51.494;-2.626;2023-05-10T06:44:06;15.32;;;5.40;;
70153;SDS011;57519;51.494;-2.626;2023-05-10T06:46:31;18.67;;;5.40;;
70153;SDS011;57519;51.494;-2.626;2023-05-10T06:48:57;20.60;;;5.60;;
70153;SDS011;57519;51.494;-2.626;2023-05-10T06:51:22;22.87;;;5.90;;
70153;SDS011;57519;51.494;-2.626;2023-05-10T06:53:48;24.48;;;5.63;;
70153;SDS011;57519;51.494;-2.626;2023-05-10T06:56:13;15.83;;;5.40;;
70153;SDS011;57519;51.494;-2.626;2023-05-10T06:58:39;16.40;;;5.40;;
70153;SDS011;57519;51.494;-2.626;2023-05-10T07:01:04;19.53;;;5.03;;
70153;SDS011;57519;51.494;-2.626;2023-05-10T07:03:31;23.27;;;5.82;;
70153;SDS011;57519;51.494;-2.626;2023-05-10T07:06:03;24.45;;;5.43;;
70153;SDS011;57519;51.494;-2.626;2023-05-10T07:08:32;15.25;;;5.30;;
70153;SDS011;57519;51.494;-2.626;2023-05-10T07:11:04;20.17;;;5.03;;
70153;SDS011;57519;51.494;-2.626;2023-05-10T07:13:32;10.73;;;4.27;;
70153;SDS011;57519;51.494;-2.626;2023-05-10T07:15:58;16.42;;;4.85;;
70153;SDS011;57519;51.494;-2.626;2023-05-10T07:18:24;15.23;;;4.70;;
70153;SDS011;57519;51.494;-2.626;2023-05-10T07:20:50;18.92;;;5.22;;
70153;SDS011;57519;51.494;-2.626;2023-05-10T07:23:15;12.53;;;4.87;;
70153;SDS011;57519;51.494;-2.626;2023-05-10T07:25:46;16.92;;;4.53;;
70153;SDS011;57519;51.494;-2.626;2023-05-10T07:28:16;14.17;;;5.17;;
70153;SDS011;57519;51.494;-2.626;2023-05-10T07:30:42;13.95;;;4.38;;
70153;SDS011;57519;51.494;-2.626;2023-05-10T07:33:08;14.00;;;4.17;;
70153;SDS011;57519;51.494;-2.626;2023-05-10T07:35:34;12.25;;;4.05;;
70153;SDS011;57519;51.494;-2.626;2023-05-10T07:38:00;14.98;;;5.82;;
70153;SDS011;57519;51.494;-2.626;2023-05-10T07:40:26;15.48;;;4.53;;
70153;SDS011;57519;51.494;-2.626;2023-05-10T07:42:52;14.13;;;4.45;;
70153;SDS011;57519;51.494;-2.626;2023-05-10T07:45:18;13.00;;;4.10;;
70153;SDS011;57519;51.494;-2.626;2023-05-10T07:47:43;16.03;;;5.27;;
70153;SDS011;57519;51.494;-2.626;2023-05-10T07:50:08;17.13;;;4.57;;
70153;SDS011;57519;51.494;-2.626;2023-05-10T07:52:34;15.93;;;3.93;;
70153;SDS011;57519;51.494;-2.626;2023-05-10T07:54:59;14.67;;;4.17;;
70153;SDS011;57519;51.494;-2.626;2023-05-10T07:57:25;14.53;;;4.77;;
70153;SDS011;57519;51.494;-2.626;2023-05-10T07:59:50;11.33;;;4.83;;
70153;SDS011;57519;51.494;-2.626;2023-05-10T08:02:16;17.60;;;4.80;;
70153;SDS011;57519;51.494;-2.626;2023-05-10T08:04:41;16.08;;;4.50;;
70153;SDS011;57519;51.494;-2.626;2023-05-10T08:07:06;16.43;;;5.00;;
70153;SDS011;57519;51.494;-2.626;2023-05-10T08:09:32;14.93;;;4.63;;
70153;SDS011;57519;51.494;-2.626;2023-05-10T08:11:58;15.05;;;4.82;;
70153;SDS011;57519;51.494;-2.626;2023-05-10T08:14:25;15.20;;;4.88;;
70153;SDS011;57519;51.494;-2.626;2023-05-10T08:16:50;17.70;;;5.43;;
70153;SDS011;57519;51.494;-2.626;2023-05-10T08:19:16;20.75;;;5.30;;
70153;SDS011;57519;51.494;-2.626;2023-05-10T08:21:44;15.27;;;4.57;;
70153;SDS011;57519;51.494;-2.626;2023-05-10T08:24:10;18.52;;;5.38;;
70153;SDS011;57519;51.494;-2.626;2023-05-10T08:26:35;16.23;;;6.00;;
70153;SDS011;57519;51.494;-2.626;2023-05-10T08:29:01;10.95;;;4.50;;
70153;SDS011;57519;51.494;-2.626;2023-05-10T08:31:27;13.77;;;4.63;;
70153;SDS011;57519;51.494;-2.626;2023-05-10T08:33:52;15.40;;;4.10;;
70153;SDS011;57519;51.494;-2.626;2023-05-10T08:36:18;11.82;;;4.30;;
70153;SDS011;57519;51.494;-2.626;2023-05-10T08:38:46;14.77;;;4.60;;
70153;SDS011;57519;51.494;-2.626;2023-05-10T08:41:12;13.18;;;3.42;;
70153;SDS011;57519;51.494;-2.626;2023-05-10T08:43:38;12.25;;;4.10;;
70153;SDS011;57519;51.494;-2.626;2023-05-10T08:46:06;15.18;;;5.40;;
70153;SDS011;57519;51.494;-2.626;2023-05-10T08:48:34;9.32;;;4.13;;
70153;SDS011;57519;51.494;-2.626;2023-05-10T08:51:00;19.87;;;5.10;;
70153;SDS011;57519;51.494;-2.626;2023-05-10T08:53:25;14.02;;;5.00;;
70153;SDS011;57519;51.494;-2.626;2023-05-10T08:55:52;14.20;;;4.88;;
70153;SDS011;57519;51.494;-2.626;2023-05-10T08:58:19;18.13;;;5.07;;
70153;SDS011;57519;51.494;-2.626;2023-05-10T09:00:45;15.60;;;4.83;;
70153;SDS011;57519;51.494;-2.626;2023-05-10T09:03:11;15.23;;;4.63;;
70153;SDS011;57519;51.494;-2.626;2023-05-10T09:05:37;12.80;;;4.70;;
70153;SDS011;57519;51.494;-2.626;2023-05-10T09:08:03;17.00;;;5.20;;
70153;SDS011;57519;51.494;-2.626;2023-05-10T09:10:29;13.90;;;5.75;;
70153;SDS011;57519;51.494;-2.626;2023-05-10T09:12:58;18.25;;;6.30;;
70153;SDS011;57519;51.494;-2.626;2023-05-10T09:15:24;15.70;;;6.32;;
70153;SDS011;57519;51.494;-2.626;2023-05-10T09:17:50;18.13;;;7.13;;
70153;SDS011;57519;51.494;-2.626;2023-05-10T09:20:15;19.63;;;6.20;;
70153;SDS011;57519;51.494;-2.626;2023-05-10T09:22:42;19.77;;;6.03;;
70153;SDS011;57519;51.494;-2.626;2023-05-10T09:25:14;14.85;;;6.70;;
70153;SDS011;57519;51.494;-2.626;2023-05-10T09:27:43;12.98;;;6.18;;
70153;SDS011;57519;51.494;-2.626;2023-05-10T09:30:10;23.77;;;6.80;;
70153;SDS011;57519;51.494;-2.626;2023-05-10T09:32:57;15.70;;;5.05;;
70153;SDS011;57519;51.494;-2.626;2023-05-10T09:35:25;15.85;;;5.75;;
70153;SDS011;57519;51.494;-2.626;2023-05-10T09:37:52;15.70;;;4.93;;
70153;SDS011;57519;51.494;-2.626;2023-05-10T09:40:20;13.23;;;4.53;;
70153;SDS011;57519;51.494;-2.626;2023-05-10T09:42:51;17.03;;;4.73;;
70153;SDS011;57519;51.494;-2.626;2023-05-10T09:45:16;14.60;;;4.65;;
70153;SDS011;57519;51.494;-2.626;2023-05-10T09:47:42;12.67;;;4.03;;
70153;SDS011;57519;51.494;-2.626;2023-05-10T09:50:07;15.40;;;4.70;;
70153;SDS011;57519;51.494;-2.626;2023-05-10T09:55:16;17.00;;;4.90;;
70153;SDS011;57519;51.494;-2.626;2023-05-10T09:57:46;14.60;;;4.63;;
70153;SDS011;57519;51.494;-2.626;2023-05-10T10:00:16;13.10;;;4.72;;
70153;SDS011;57519;51.494;-2.626;2023-05-10T10:02:44;14.52;;;4.72;;
70153;SDS011;57519;51.494;-2.626;2023-05-10T10:05:11;13.70;;;4.43;;
70153;SDS011;57519;51.494;-2.626;2023-05-10T10:07:36;14.13;;;4.25;;
70153;SDS011;57519;51.494;-2.626;2023-05-10T10:10:02;12.23;;;3.78;;
70153;SDS011;57519;51.494;-2.626;2023-05-10T10:12:29;13.77;;;3.97;;
70153;SDS011;57519;51.494;-2.626;2023-05-10T10:14:55;7.53;;;3.50;;
70153;SDS011;57519;51.494;-2.626;2023-05-10T10:17:21;10.88;;;4.05;;
70153;SDS011;57519;51.494;-2.626;2023-05-10T10:19:46;7.23;;;2.70;;
70153;SDS011;57519;51.494;-2.626;2023-05-10T10:22:14;10.50;;;2.80;;
70153;SDS011;57519;51.494;-2.626;2023-05-10T10:24:39;9.17;;;3.20;;
70153;SDS011;57519;51.494;-2.626;2023-05-10T10:27:14;9.52;;;4.03;;
70153;SDS011;57519;51.494;-2.626;2023-05-10T10:30:10;8.00;;;3.63;;
70153;SDS011;57519;51.494;-2.626;2023-05-10T10:35:39;10.93;;;3.38;;
70153;SDS011;57519;51.494;-2.626;2023-05-10T10:38:07;15.65;;;4.18;;
70153;SDS011;57519;51.494;-2.626;2023-05-10T10:40:33;11.48;;;4.13;;
70153;SDS011;57519;51.494;-2.626;2023-05-10T10:48:47;13.20;;;3.85;;
70153;SDS011;57519;51.494;-2.626;2023-05-10T10:51:13;14.60;;;4.30;;
70153;SDS011;57519;51.494;-2.626;2023-05-10T10:53:39;14.60;;;4.05;;
70153;SDS011;57519;51.494;-2.626;2023-05-10T10:56:09;13.70;;;3.80;;
70153;SDS011;57519;51.494;-2.626;2023-05-10T10:58:40;11.15;;;4.30;;
70153;SDS011;57519;51.494;-2.626;2023-05-10T11:01:16;15.43;;;4.55;;
70153;SDS011;57519;51.494;-2.626;2023-05-10T11:08:59;13.23;;;3.73;;
70153;SDS011;57519;51.494;-2.626;2023-05-10T11:11:35;13.15;;;4.15;;
70153;SDS011;57519;51.494;-2.626;2023-05-10T11:43:34;12.35;;;3.97;;
70153;SDS011;57519;51.494;-2.626;2023-05-10T11:46:02;30.35;;;6.40;;
70153;SDS011;57519;51.494;-2.626;2023-05-10T11:48:29;55.63;;;11.00;;
70153;SDS011;57519;51.494;-2.626;2023-05-10T11:50:55;16.60;;;4.28;;
70153;SDS011;57519;51.494;-2.626;2023-05-10T11:53:22;16.27;;;4.10;;
70153;SDS011;57519;51.494;-2.626;2023-05-10T11:55:50;8.80;;;3.28;;
70153;SDS011;57519;51.494;-2.626;2023-05-10T11:58:17;10.67;;;2.97;;
70153;SDS011;57519;51.494;-2.626;2023-05-10T12:00:43;11.50;;;3.75;;
70153;SDS011;57519;51.494;-2.626;2023-05-10T12:03:10;15.77;;;3.97;;
70153;SDS011;57519;51.494;-2.626;2023-05-10T12:05:36;11.10;;;3.72;;
70153;SDS011;57519;51.494;-2.626;2023-05-10T12:08:14;11.83;;;3.80;;
70153;SDS011;57519;51.494;-2.626;2023-05-10T12:10:45;10.30;;;3.40;;
70153;SDS011;57519;51.494;-2.626;2023-05-10T12:13:11;12.80;;;4.43;;
70153;SDS011;57519;51.494;-2.626;2023-05-10T12:15:39;17.67;;;4.13;;
70153;SDS011;57519;51.494;-2.626;2023-05-10T12:18:04;11.65;;;3.97;;
70153;SDS011;57519;51.494;-2.626;2023-05-10T12:20:33;14.35;;;4.13;;
70153;SDS011;57519;51.494;-2.626;2023-05-10T12:22:59;12.63;;;3.90;;
70153;SDS011;57519;51.494;-2.626;2023-05-10T12:25:32;17.88;;;4.63;;
70153;SDS011;57519;51.494;-2.626;2023-05-10T12:27:59;13.52;;;4.18;;
70153;SDS011;57519;51.494;-2.626;2023-05-10T12:30:32;13.50;;;4.10;;
70153;SDS011;57519;51.494;-2.626;2023-05-10T12:33:06;9.85;;;3.78;;
70153;SDS011;57519;51.494;-2.626;2023-05-10T12:35:42;11.13;;;3.40;;
70153;SDS011;57519;51.494;-2.626;2023-05-10T12:41:05;13.27;;;3.38;;
70153;SDS011;57519;51.494;-2.626;2023-05-10T12:43:32;12.70;;;3.60;;
70153;SDS011;57519;51.494;-2.626;2023-05-10T12:46:06;8.75;;;3.50;;
70153;SDS011;57519;51.494;-2.626;2023-05-10T12:48:32;11.63;;;3.33;;
70153;SDS011;57519;51.494;-2.626;2023-05-10T12:50:59;8.23;;;3.40;;
70153;SDS011;57519;51.494;-2.626;2023-05-10T12:53:25;9.05;;;3.25;;
70153;SDS011;57519;51.494;-2.626;2023-05-10T12:55:51;9.17;;;3.20;;
70153;SDS011;57519;51.494;-2.626;2023-05-10T12:58:17;7.50;;;3.03;;
70153;SDS011;57519;51.494;-2.626;2023-05-10T13:00:46;15.20;;;3.37;;
70153;SDS011;57519;51.494;-2.626;2023-05-10T13:03:12;12.18;;;3.17;;
70153;SDS011;57519;51.494;-2.626;2023-05-10T13:05:37;14.20;;;3.90;;
70153;SDS011;57519;51.494;-2.626;2023-05-10T13:08:03;13.77;;;3.78;;
70153;SDS011;57519;51.494;-2.626;2023-05-10T13:10:29;50.87;;;9.97;;
70153;SDS011;57519;51.494;-2.626;2023-05-10T13:12:56;8.35;;;3.65;;
70153;SDS011;57519;51.494;-2.626;2023-05-10T13:15:22;31.45;;;6.60;;
70153;SDS011;57519;51.494;-2.626;2023-05-10T13:18:01;22.95;;;5.28;;
70153;SDS011;57519;51.494;-2.626;2023-05-10T13:20:26;7.33;;;3.63;;
70153;SDS011;57519;51.494;-2.626;2023-05-10T13:25:19;10.37;;;2.70;;
70153;SDS011;57519;51.494;-2.626;2023-05-10T13:27:45;9.43;;;3.22;;
70153;SDS011;57519;51.494;-2.626;2023-05-10T13:32:45;10.00;;;2.95;;
70153;SDS011;57519;51.494;-2.626;2023-05-10T13:35:11;12.63;;;2.92;;
70153;SDS011;57519;51.494;-2.626;2023-05-10T13:37:36;10.53;;;3.60;;
70153;SDS011;57519;51.494;-2.626;2023-05-10T13:40:02;10.63;;;3.10;;
70153;SDS011;57519;51.494;-2.626;2023-05-10T13:47:39;16.88;;;3.83;;
70153;SDS011;57519;51.494;-2.626;2023-05-10T13:52:39;8.47;;;3.10;;
70153;SDS011;57519;51.494;-2.626;2023-05-10T13:57:34;8.23;;;3.25;;
70153;SDS011;57519;51.494;-2.626;2023-05-10T14:00:01;6.43;;;2.17;;
70153;SDS011;57519;51.494;-2.626;2023-05-10T14:05:02;46.38;;;9.00;;
70153;SDS011;57519;51.494;-2.626;2023-05-10T14:07:28;8.25;;;3.42;;
70153;SDS011;57519;51.494;-2.626;2023-05-10T14:09:55;7.13;;;2.67;;
70153;SDS011;57519;51.494;-2.626;2023-05-10T14:12:21;15.45;;;3.75;;
70153;SDS011;57519;51.494;-2.626;2023-05-10T14:14:48;9.73;;;3.13;;
70153;SDS011;57519;51.494;-2.626;2023-05-10T14:19:43;8.25;;;2.72;;
70153;SDS011;57519;51.494;-2.626;2023-05-10T14:24:43;10.88;;;2.85;;
70153;SDS011;57519;51.494;-2.626;2023-05-10T14:27:11;11.32;;;3.13;;
70153;SDS011;57519;51.494;-2.626;2023-05-10T14:29:37;9.05;;;3.13;;
70153;SDS011;57519;51.494;-2.626;2023-05-10T14:32:08;7.77;;;2.50;;
70153;SDS011;57519;51.494;-2.626;2023-05-10T14:34:34;35.25;;;6.63;;
70153;SDS011;57519;51.494;-2.626;2023-05-10T14:53:58;10.70;;;2.53;;
70153;SDS011;57519;51.494;-2.626;2023-05-10T14:56:23;12.52;;;3.70;;
70153;SDS011;57519;51.494;-2.626;2023-05-10T15:01:25;17.08;;;3.80;;
70153;SDS011;57519;51.494;-2.626;2023-05-10T15:03:51;9.77;;;2.60;;
70153;SDS011;57519;51.494;-2.626;2023-05-10T15:06:17;57.78;;;11.13;;
70153;SDS011;57519;51.494;-2.626;2023-05-10T15:08:55;5.70;;;2.33;;
70153;SDS011;57519;51.494;-2.626;2023-05-10T15:11:23;7.40;;;3.20;;
70153;SDS011;57519;51.494;-2.626;2023-05-10T15:13:49;26.67;;;5.90;;
70153;SDS011;57519;51.494;-2.626;2023-05-10T15:16:14;7.20;;;2.97;;
70153;SDS011;57519;51.494;-2.626;2023-05-10T15:18:40;8.20;;;2.80;;
70153;SDS011;57519;51.494;-2.626;2023-05-10T15:21:05;8.47;;;2.70;;
70153;SDS011;57519;51.494;-2.626;2023-05-10T15:23:31;11.30;;;3.07;;
70153;SDS011;57519;51.494;-2.626;2023-05-10T15:25:57;10.87;;;2.90;;
70153;SDS011;57519;51.494;-2.626;2023-05-10T15:28:22;13.15;;;3.00;;
70153;SDS011;57519;51.494;-2.626;2023-05-10T15:30:48;10.30;;;3.27;;
70153;SDS011;57519;51.494;-2.626;2023-05-10T15:33:14;10.93;;;2.83;;
70153;SDS011;57519;51.494;-2.626;2023-05-10T15:35:39;7.37;;;2.97;;
70153;SDS011;57519;51.494;-2.626;2023-05-10T15:38:05;5.70;;;2.87;;
70153;SDS011;57519;51.494;-2.626;2023-05-10T15:40:30;12.65;;;3.33;;
70153;SDS011;57519;51.494;-2.626;2023-05-10T15:42:56;10.97;;;2.77;;
70153;SDS011;57519;51.494;-2.626;2023-05-10T15:45:22;5.30;;;2.58;;
70153;SDS011;57519;51.494;-2.626;2023-05-10T15:47:47;7.90;;;3.20;;
70153;SDS011;57519;51.494;-2.626;2023-05-10T15:50:14;8.87;;;3.43;;
70153;SDS011;57519;51.494;-2.626;2023-05-10T15:52:40;9.25;;;2.83;;
70153;SDS011;57519;51.494;-2.626;2023-05-10T15:55:06;7.33;;;2.73;;
70153;SDS011;57519;51.494;-2.626;2023-05-10T15:57:37;6.22;;;2.55;;
70153;SDS011;57519;51.494;-2.626;2023-05-10T16:00:06;8.13;;;2.75;;
70153;SDS011;57519;51.494;-2.626;2023-05-10T16:02:33;5.47;;;2.20;;
70153;SDS011;57519;51.494;-2.626;2023-05-10T16:04:59;6.30;;;2.60;;
70153;SDS011;57519;51.494;-2.626;2023-05-10T16:07:28;8.50;;;2.90;;
70153;SDS011;57519;51.494;-2.626;2023-05-10T16:09:53;9.73;;;3.00;;
70153;SDS011;57519;51.494;-2.626;2023-05-10T16:12:19;10.40;;;3.23;;
70153;SDS011;57519;51.494;-2.626;2023-05-10T16:14:44;5.07;;;2.70;;
70153;SDS011;57519;51.494;-2.626;2023-05-10T16:17:13;8.95;;;2.80;;
70153;SDS011;57519;51.494;-2.626;2023-05-10T16:19:56;7.78;;;2.28;;
70153;SDS011;57519;51.494;-2.626;2023-05-10T16:22:22;10.37;;;3.27;;
70153;SDS011;57519;51.494;-2.626;2023-05-10T16:24:51;9.35;;;2.60;;
70153;SDS011;57519;51.494;-2.626;2023-05-10T16:27:17;5.65;;;2.55;;
70153;SDS011;57519;51.494;-2.626;2023-05-10T16:29:43;8.50;;;2.55;;
70153;SDS011;57519;51.494;-2.626;2023-05-10T16:32:09;10.10;;;3.20;;
70153;SDS011;57519;51.494;-2.626;2023-05-10T16:34:35;7.25;;;3.63;;
70153;SDS011;57519;51.494;-2.626;2023-05-10T16:37:00;6.07;;;2.70;;
70153;SDS011;57519;51.494;-2.626;2023-05-10T16:39:25;10.53;;;2.90;;
70153;SDS011;57519;51.494;-2.626;2023-05-10T16:41:51;7.50;;;3.17;;
70153;SDS011;57519;51.494;-2.626;2023-05-10T16:44:16;7.60;;;2.40;;
70153;SDS011;57519;51.494;-2.626;2023-05-10T16:46:42;5.93;;;2.60;;
70153;SDS011;57519;51.494;-2.626;2023-05-10T16:49:07;13.90;;;3.03;;
70153;SDS011;57519;51.494;-2.626;2023-05-10T16:51:33;6.93;;;2.53;;
70153;SDS011;57519;51.494;-2.626;2023-05-10T16:53:59;8.67;;;2.30;;
70153;SDS011;57519;51.494;-2.626;2023-05-10T16:56:25;7.57;;;2.55;;
70153;SDS011;57519;51.494;-2.626;2023-05-10T16:58:50;5.30;;;2.67;;
70153;SDS011;57519;51.494;-2.626;2023-05-10T17:01:16;11.13;;;3.37;;
70153;SDS011;57519;51.494;-2.626;2023-05-10T17:08:44;60.75;;;10.95;;
70153;SDS011;57519;51.494;-2.626;2023-05-10T17:31:48;6.10;;;3.17;;
70153;SDS011;57519;51.494;-2.626;2023-05-10T17:34:16;16.35;;;3.85;;
70153;SDS011;57519;51.494;-2.626;2023-05-10T17:36:44;10.93;;;2.80;;